createdAt,value
2022-09-17T00:11:48.372Z,281.55753
2022-09-17T00:26:50.740Z,308.86575
2022-09-17T00:41:52.943Z,414.33212
2022-09-17T00:56:55.199Z,1050.89697
2022-09-17T01:11:57.586Z,398.32385
2022-09-17T01:26:59.823Z,275.90753
2022-09-17T01:42:02.127Z,130.89128
2022-09-17T01:57:04.380Z,18.83328
2022-09-17T02:12:06.602Z,6.59165
2022-09-17T02:27:08.887Z,0
2022-09-17T02:42:11.258Z,0
2022-09-17T02:57:13.728Z,0
2022-09-17T03:12:16.206Z,0
2022-09-17T03:27:18.478Z,0
2022-09-17T03:42:20.711Z,0
2022-09-17T03:57:22.950Z,0
2022-09-17T04:12:25.274Z,0
2022-09-17T04:27:27.490Z,0
2022-09-17T04:42:29.698Z,0
2022-09-17T04:57:31.944Z,0
2022-09-17T05:12:34.680Z,0
2022-09-17T05:27:37.157Z,0
2022-09-17T05:42:39.384Z,0
2022-09-17T05:57:41.617Z,0
2022-09-17T06:12:43.798Z,0
2022-09-17T06:27:46.100Z,0
2022-09-17T06:42:48.326Z,0
2022-09-17T06:57:50.597Z,0
2022-09-17T07:12:52.964Z,0
2022-09-17T07:27:55.202Z,0
2022-09-17T07:42:57.435Z,0
2022-09-17T07:57:59.957Z,0
2022-09-17T08:13:02.189Z,0
2022-09-17T08:28:04.402Z,0
2022-09-17T08:43:06.622Z,0
2022-09-17T08:58:09.072Z,0
2022-09-17T09:13:11.297Z,0
2022-09-17T09:28:13.486Z,0
2022-09-17T09:43:15.696Z,0
2022-09-17T09:58:17.890Z,0
2022-09-17T10:13:20.139Z,0
2022-09-17T10:28:22.420Z,0
2022-09-17T10:43:24.684Z,0
2022-09-17T10:58:26.903Z,0
2022-09-17T11:13:29.164Z,0
2022-09-17T11:28:31.435Z,0
2022-09-17T11:43:33.734Z,0
2022-09-17T11:58:35.952Z,0
2022-09-17T12:13:38.401Z,0
2022-09-17T12:28:40.740Z,0
2022-09-17T12:43:43.011Z,0
2022-09-17T12:58:45.327Z,0
2022-09-17T13:13:47.610Z,4.70832
2022-09-17T13:28:49.801Z,36.72489
2022-09-17T13:43:52.186Z,145.01625
2022-09-17T13:58:54.475Z,447.29037
2022-09-17T14:13:56.731Z,822.07263
2022-09-17T14:28:58.939Z,1331.51282
2022-09-17T14:44:01.155Z,8144.45117
2022-09-17T14:59:03.379Z,3037.80786
2022-09-17T15:14:05.532Z,4482.32031
2022-09-17T15:29:07.789Z,3562.3147
2022-09-17T15:44:29.052Z,2783.55859
2022-09-17T15:59:33.010Z,4770.46924
2022-09-17T16:14:35.218Z,7024.81299
2022-09-17T16:29:37.500Z,5452.23389
2022-09-17T16:44:39.723Z,6705.58887
2022-09-17T16:59:42.005Z,6973.96289
2022-09-17T17:14:44.278Z,7919.39355
2022-09-17T17:29:46.498Z,6842.12988
2022-09-17T17:44:48.751Z,4779.88623
2022-09-17T17:59:51.218Z,6355.29004
2022-09-17T18:14:53.474Z,7073.7793
2022-09-17T18:29:55.882Z,7061.5376
2022-09-17T18:44:58.094Z,7357.22021
2022-09-17T19:00:00.524Z,7733.88574
2022-09-17T19:15:02.822Z,8202.83398
2022-09-17T19:30:05.052Z,7586.98633
2022-09-17T19:45:07.518Z,8186.82617
2022-09-17T20:00:09.725Z,7715.05273
2022-09-17T20:15:11.928Z,8354.44238
2022-09-17T20:30:14.169Z,7814.86865
2022-09-17T20:45:16.407Z,8104.90137
2022-09-17T21:00:18.580Z,7442.91162
2022-09-17T21:15:20.802Z,8359.15039
2022-09-17T21:30:23.075Z,8260.27637
2022-09-17T21:45:25.355Z,8963.69922
2022-09-17T22:00:27.698Z,4501.15332
2022-09-17T22:15:29.993Z,5835.49121
2022-09-17T22:30:32.358Z,6122.69873
2022-09-17T22:45:34.716Z,4634.86963
2022-09-17T23:00:36.952Z,5552.99219
2022-09-17T23:15:39.263Z,2944.58301
2022-09-17T23:30:41.579Z,3405.99829
2022-09-17T23:45:43.821Z,2611.23413
